Time;durP1;ratioP1;P1;durP2;ratioP2;P2;SDS_P1;SDS_P2;PMS_P1;PMS_P2;Temp;Humidity;BMP_temperature;BMP_pressure;BME280_temperature;BME280_humidity;BME280_pressure;Samples;Min_cycle;Max_cycle;Signal;HPM_P1;HPM_P2
2021/04/28 00:02:27;;;;;;;6.97;5.65;;;;;;;;;;5007977;28;20559;-63
2021/04/28 00:05:12;;;;;;;7.72;6.00;;;;;;;;;;4995132;28;20139;-63
2021/04/28 00:07:57;;;;;;;5.78;5.13;;;;;;;;;;4995171;28;20073;-61
2021/04/28 00:10:43;;;;;;;7.78;4.88;;;;;;;;;;4994776;28;20051;-61
2021/04/28 00:13:28;;;;;;;7.63;5.43;;;;;;;;;;5005651;28;20484;-61
2021/04/28 00:16:14;;;;;;;7.13;5.50;;;;;;;;;;4975657;28;20050;-61
2021/04/28 00:18:59;;;;;;;8.80;5.00;;;;;;;;;;4975463;28;20047;-61
2021/04/28 00:21:45;;;;;;;5.70;4.75;;;;;;;;;;4975265;28;20055;-61
2021/04/28 00:24:30;;;;;;;9.07;5.13;;;;;;;;;;5010525;28;20136;-61
2021/04/28 00:27:15;;;;;;;8.60;5.50;;;;;;;;;;5000430;28;20436;-61
2021/04/28 00:30:01;;;;;;;8.02;4.20;;;;;;;;;;4994381;28;20492;-61
2021/04/28 00:32:46;;;;;;;9.02;4.93;;;;;;;;;;4994748;28;20049;-61
2021/04/28 00:35:32;;;;;;;10.75;4.88;;;;;;;;;;4994540;28;20492;-61
2021/04/28 00:38:17;;;;;;;7.38;4.88;;;;;;;;;;4994582;28;20046;-61
2021/04/28 00:41:06;;;;;;;10.20;5.05;;;;;;;;;;4994385;28;20046;-62
2021/04/28 00:43:51;;;;;;;8.75;4.38;;;;;;;;;;5001007;28;20057;-61
2021/04/28 00:46:37;;;;;;;7.05;5.00;;;;;;;;;;4999491;28;20061;-61
2021/04/28 00:49:23;;;;;;;6.43;4.47;;;;;;;;;;4993941;28;20050;-61
2021/04/28 00:52:08;;;;;;;7.78;5.03;;;;;;;;;;4994375;28;20050;-61
2021/04/28 00:54:54;;;;;;;5.65;4.57;;;;;;;;;;5064175;22;20049;-62
2021/04/28 00:57:39;;;;;;;8.70;4.85;;;;;;;;;;5005099;28;20119;-62
2021/04/28 01:00:25;;;;;;;6.00;5.15;;;;;;;;;;5033396;28;20055;-62
2021/04/28 01:03:11;;;;;;;6.78;4.70;;;;;;;;;;5019659;28;20045;-62
2021/04/28 01:05:56;;;;;;;5.50;4.57;;;;;;;;;;5035118;28;20075;-62
2021/04/28 01:08:42;;;;;;;5.97;4.50;;;;;;;;;;5033470;28;20049;-62
2021/04/28 01:11:28;;;;;;;7.20;4.60;;;;;;;;;;5018035;28;20399;-62
2021/04/28 01:14:17;;;;;;;6.65;4.30;;;;;;;;;;5019821;28;20049;-62
2021/04/28 01:17:02;;;;;;;9.82;4.50;;;;;;;;;;5052132;28;20688;-63
2021/04/28 01:19:47;;;;;;;5.80;4.32;;;;;;;;;;5052175;28;20546;-62
2021/04/28 01:22:35;;;;;;;5.90;4.50;;;;;;;;;;5052418;28;20076;-62
2021/04/28 01:25:21;;;;;;;7.95;4.47;;;;;;;;;;5051417;28;20049;-62
2021/04/28 01:28:11;;;;;;;7.95;4.35;;;;;;;;;;5051874;28;20057;-62
2021/04/28 01:31:08;;;;;;;10.93;4.38;;;;;;;;;;5051785;28;20187;-63
2021/04/28 01:33:54;;;;;;;7.33;4.73;;;;;;;;;;5052743;28;20048;-62
2021/04/28 01:36:40;;;;;;;7.38;4.50;;;;;;;;;;5036763;28;20557;-63
2021/04/28 01:39:25;;;;;;;4.78;3.70;;;;;;;;;;5030976;28;20475;-63
2021/04/28 01:42:10;;;;;;;7.38;4.65;;;;;;;;;;5018931;28;20053;-62
2021/04/28 01:44:56;;;;;;;6.90;4.97;;;;;;;;;;5031550;28;20078;-63
2021/04/28 01:47:41;;;;;;;5.78;4.35;;;;;;;;;;5031590;28;20042;-62
2021/04/28 01:50:27;;;;;;;7.60;4.40;;;;;;;;;;5031401;28;20076;-63
2021/04/28 01:53:13;;;;;;;6.50;4.03;;;;;;;;;;5032392;28;20052;-62
2021/04/28 01:55:59;;;;;;;6.38;4.50;;;;;;;;;;5032680;28;20057;-62
2021/04/28 01:58:59;;;;;;;5.40;3.47;;;;;;;;;;5020374;28;20057;-62
2021/04/28 02:02:10;;;;;;;7.05;4.15;;;;;;;;;;5016027;28;20068;-63
2021/04/28 02:04:59;;;;;;;5.30;4.25;;;;;;;;;;5017494;28;20567;-62
2021/04/28 02:07:46;;;;;;;4.80;3.60;;;;;;;;;;5017581;28;20063;-62
2021/04/28 02:10:31;;;;;;;7.50;4.15;;;;;;;;;;5032043;28;20128;-62
2021/04/28 02:13:20;;;;;;;7.35;3.67;;;;;;;;;;5017334;28;20188;-62
2021/04/28 02:16:07;;;;;;;5.38;4.03;;;;;;;;;;5017224;28;20049;-62
2021/04/28 02:18:53;;;;;;;5.03;3.83;;;;;;;;;;5017417;28;20110;-62
2021/04/28 02:21:51;;;;;;;6.40;3.90;;;;;;;;;;5017043;28;20132;-63
2021/04/28 02:24:47;;;;;;;5.15;3.58;;;;;;;;;;5017113;28;20060;-62
2021/04/28 02:27:38;;;;;;;8.40;4.57;;;;;;;;;;5020622;28;20049;-62
2021/04/28 02:30:25;;;;;;;6.28;3.83;;;;;;;;;;5015840;28;20053;-62
2021/04/28 02:33:11;;;;;;;5.75;4.07;;;;;;;;;;5031691;28;20099;-62
2021/04/28 02:36:17;;;;;;;5.20;3.30;;;;;;;;;;5031074;28;20512;-62
2021/04/28 02:39:28;;;;;;;5.43;3.85;;;;;;;;;;5020559;28;20073;-62
2021/04/28 02:42:14;;;;;;;7.00;4.57;;;;;;;;;;5031882;28;20112;-62
2021/04/28 02:45:00;;;;;;;3.78;3.30;;;;;;;;;;5016906;28;20060;-62
2021/04/28 02:47:47;;;;;;;7.95;4.13;;;;;;;;;;5017714;28;20579;-62
2021/04/28 02:50:33;;;;;;;7.13;3.80;;;;;;;;;;5016709;28;20048;-62
2021/04/28 02:53:24;;;;;;;6.22;3.75;;;;;;;;;;5020834;28;20512;-63
2021/04/28 02:56:10;;;;;;;5.10;3.25;;;;;;;;;;5034977;28;20042;-63
2021/04/28 02:58:56;;;;;;;5.45;2.63;;;;;;;;;;5021476;28;20403;-62
2021/04/28 03:01:42;;;;;;;3.67;2.97;;;;;;;;;;5021154;28;20058;-62
2021/04/28 03:04:27;;;;;;;6.18;3.50;;;;;;;;;;5020604;28;20061;-62
2021/04/28 03:07:34;;;;;;;4.15;2.80;;;;;;;;;;5020967;28;20045;-63
2021/04/28 03:10:19;;;;;;;6.88;3.30;;;;;;;;;;5055431;28;20052;-62
2021/04/28 03:13:05;;;;;;;5.68;3.13;;;;;;;;;;5055810;28;20121;-62
2021/04/28 03:15:51;;;;;;;5.35;2.90;;;;;;;;;;5054538;28;20407;-62
2021/04/28 03:18:36;;;;;;;7.45;3.10;;;;;;;;;;5052449;28;20060;-62
2021/04/28 03:21:23;;;;;;;4.93;3.47;;;;;;;;;;5020158;28;20042;-62
2021/04/28 03:24:09;;;;;;;7.93;3.17;;;;;;;;;;5020289;28;20381;-62
2021/04/28 03:26:54;;;;;;;5.72;2.92;;;;;;;;;;5034298;28;20049;-62
2021/04/28 03:29:40;;;;;;;3.83;2.60;;;;;;;;;;5028690;28;20049;-62
2021/04/28 03:32:26;;;;;;;4.18;3.38;;;;;;;;;;5053998;28;20041;-62
2021/04/28 03:35:29;;;;;;;4.25;2.97;;;;;;;;;;5054001;28;20483;-62
2021/04/28 03:38:33;;;;;;;9.18;2.92;;;;;;;;;;5055344;28;20078;-63
2021/04/28 03:41:23;;;;;;;7.47;3.13;;;;;;;;;;5053356;28;20083;-62
2021/04/28 03:44:08;;;;;;;4.72;2.63;;;;;;;;;;5039667;28;20056;-62
2021/04/28 03:46:54;;;;;;;4.18;3.05;;;;;;;;;;5053802;28;20120;-62
2021/04/28 03:49:40;;;;;;;6.03;2.97;;;;;;;;;;5050460;28;20065;-62
2021/04/28 03:52:25;;;;;;;3.45;2.65;;;;;;;;;;5034685;28;20415;-62
2021/04/28 03:55:29;;;;;;;5.65;2.83;;;;;;;;;;5034597;28;20041;-62
2021/04/28 03:58:15;;;;;;;4.55;2.67;;;;;;;;;;5019820;28;20103;-62
2021/04/28 04:01:01;;;;;;;6.93;3.00;;;;;;;;;;5030293;28;20491;-62
2021/04/28 04:03:52;;;;;;;4.70;2.63;;;;;;;;;;5053520;28;20128;-62
2021/04/28 04:06:56;;;;;;;5.10;3.58;;;;;;;;;;5054429;28;20183;-62
2021/04/28 04:09:54;;;;;;;3.92;2.38;;;;;;;;;;5052458;28;20495;-62
2021/04/28 04:12:39;;;;;;;5.38;2.83;;;;;;;;;;5053556;28;20127;-63
2021/04/28 04:15:26;;;;;;;2.75;1.98;;;;;;;;;;5054945;28;20041;-62
2021/04/28 04:18:13;;;;;;;7.75;2.75;;;;;;;;;;5054521;28;20052;-62
2021/04/28 04:21:03;;;;;;;3.80;2.45;;;;;;;;;;5033052;28;20045;-62
2021/04/28 04:23:54;;;;;;;2.92;2.42;;;;;;;;;;5034218;28;20507;-62
2021/04/28 04:26:59;;;;;;;3.45;2.65;;;;;;;;;;5019580;28;20051;-63
2021/04/28 04:30:05;;;;;;;4.28;2.85;;;;;;;;;;5036943;28;20052;-62
2021/04/28 04:32:50;;;;;;;3.50;2.47;;;;;;;;;;5053955;28;20491;-62
2021/04/28 04:35:54;;;;;;;2.38;2.17;;;;;;;;;;5053806;28;20573;-62
2021/04/28 04:38:59;;;;;;;4.35;2.17;;;;;;;;;;5053936;28;20048;-62
2021/04/28 04:42:03;;;;;;;4.65;2.75;;;;;;;;;;5036092;28;20053;-62
2021/04/28 04:45:04;;;;;;;4.53;2.90;;;;;;;;;;5033871;28;20069;-62
2021/04/28 04:47:50;;;;;;;6.18;2.70;;;;;;;;;;5034479;28;20049;-62
2021/04/28 04:50:36;;;;;;;3.92;2.58;;;;;;;;;;5035430;28;20459;-62
2021/04/28 04:53:21;;;;;;;4.85;2.35;;;;;;;;;;5053243;28;20509;-62
2021/04/28 04:56:06;;;;;;;4.65;2.83;;;;;;;;;;5053500;28;20041;-62
2021/04/28 04:58:52;;;;;;;6.57;2.67;;;;;;;;;;5053483;28;20049;-62
2021/04/28 05:01:37;;;;;;;4.00;2.70;;;;;;;;;;5045770;28;20090;-61
2021/04/28 05:04:22;;;;;;;6.00;3.17;;;;;;;;;;5043118;28;20503;-62
2021/04/28 05:07:08;;;;;;;4.32;2.90;;;;;;;;;;5042381;28;20045;-63
2021/04/28 05:09:53;;;;;;;4.57;2.67;;;;;;;;;;5042181;28;20042;-62
2021/04/28 05:12:39;;;;;;;4.35;2.97;;;;;;;;;;5040146;28;20496;-62
2021/04/28 05:15:24;;;;;;;7.78;2.85;;;;;;;;;;5032908;28;20046;-63
2021/04/28 05:18:09;;;;;;;7.28;3.10;;;;;;;;;;5018241;28;20057;-62
2021/04/28 05:20:55;;;;;;;6.75;3.42;;;;;;;;;;5032933;28;20045;-62
2021/04/28 05:23:40;;;;;;;4.95;2.80;;;;;;;;;;5051162;28;20048;-62
2021/04/28 05:26:48;;;;;;;2.83;2.42;;;;;;;;;;5053055;28;20076;-62
2021/04/28 05:29:33;;;;;;;5.35;3.45;;;;;;;;;;5052747;28;20052;-62
2021/04/28 05:32:19;;;;;;;3.83;2.72;;;;;;;;;;5048162;28;20095;-62
2021/04/28 05:35:04;;;;;;;3.17;2.88;;;;;;;;;;5032828;28;20599;-62
2021/04/28 05:37:50;;;;;;;4.07;2.72;;;;;;;;;;5033016;28;20049;-63
2021/04/28 05:40:35;;;;;;;5.15;2.70;;;;;;;;;;5032738;28;20049;-62
2021/04/28 05:43:20;;;;;;;8.27;2.63;;;;;;;;;;5033050;28;20470;-62
2021/04/28 05:46:07;;;;;;;3.53;2.75;;;;;;;;;;5032738;28;20059;-62
2021/04/28 05:48:52;;;;;;;3.65;2.90;;;;;;;;;;5032501;28;20049;-62
2021/04/28 05:51:37;;;;;;;3.13;2.13;;;;;;;;;;5032142;28;20408;-63
2021/04/28 05:54:22;;;;;;;6.55;3.10;;;;;;;;;;5048012;28;20131;-62
2021/04/28 05:57:09;;;;;;;4.65;3.10;;;;;;;;;;5052311;28;20048;-62
2021/04/28 05:59:55;;;;;;;3.95;2.97;;;;;;;;;;5052099;28;20470;-62
2021/04/28 06:02:41;;;;;;;3.78;2.90;;;;;;;;;;5051253;28;20503;-63
2021/04/28 06:05:27;;;;;;;6.55;3.00;;;;;;;;;;5032176;28;20053;-62
2021/04/28 06:08:13;;;;;;;5.80;3.72;;;;;;;;;;5032509;28;20049;-63
2021/04/28 06:10:58;;;;;;;7.85;3.95;;;;;;;;;;5031992;28;20046;-63
2021/04/28 06:13:46;;;;;;;4.90;2.90;;;;;;;;;;5032359;28;20382;-62
2021/04/28 06:16:31;;;;;;;4.82;2.70;;;;;;;;;;5032386;28;20045;-63
2021/04/28 06:19:16;;;;;;;6.70;3.20;;;;;;;;;;5032214;28;20045;-63
2021/04/28 06:22:02;;;;;;;8.85;3.28;;;;;;;;;;5017186;28;20127;-62
2021/04/28 06:24:48;;;;;;;6.57;3.35;;;;;;;;;;5027562;28;20053;-63
2021/04/28 06:27:33;;;;;;;3.78;2.85;;;;;;;;;;5051575;28;20133;-62
2021/04/28 06:30:18;;;;;;;5.25;3.25;;;;;;;;;;5051704;28;20056;-62
2021/04/28 06:33:04;;;;;;;5.93;2.88;;;;;;;;;;5051745;28;20072;-62
2021/04/28 06:35:49;;;;;;;7.40;3.20;;;;;;;;;;5035399;28;20399;-62
2021/04/28 06:38:36;;;;;;;10.45;3.13;;;;;;;;;;5032016;28;20045;-62
2021/04/28 06:41:21;;;;;;;5.70;3.40;;;;;;;;;;5032792;28;20049;-63
2021/04/28 06:44:06;;;;;;;6.00;2.65;;;;;;;;;;5032991;28;20130;-63
2021/04/28 06:46:52;;;;;;;4.57;2.40;;;;;;;;;;5052099;28;20053;-62
2021/04/28 06:49:37;;;;;;;5.40;3.30;;;;;;;;;;5051468;28;20045;-62
2021/04/28 06:52:22;;;;;;;4.22;2.78;;;;;;;;;;5051683;28;20041;-63
2021/04/28 06:55:08;;;;;;;5.90;3.60;;;;;;;;;;5066690;22;20053;-62
2021/04/28 06:57:55;;;;;;;4.72;3.40;;;;;;;;;;5051656;28;20049;-63
2021/04/28 07:00:41;;;;;;;5.43;3.53;;;;;;;;;;5051334;28;20040;-63
2021/04/28 07:03:26;;;;;;;3.88;3.15;;;;;;;;;;5051587;28;20124;-62
2021/04/28 07:06:12;;;;;;;5.85;3.03;;;;;;;;;;5031415;28;20144;-62
2021/04/28 07:08:58;;;;;;;7.07;3.38;;;;;;;;;;5031653;28;20049;-62
2021/04/28 07:11:43;;;;;;;6.90;3.28;;;;;;;;;;5031421;28;20043;-62
2021/04/28 07:14:29;;;;;;;5.05;3.05;;;;;;;;;;5031503;28;20100;-64
2021/04/28 07:17:14;;;;;;;4.28;3.17;;;;;;;;;;5031452;28;20505;-63
2021/04/28 07:19:59;;;;;;;25.35;4.40;;;;;;;;;;5031271;28;20487;-64
2021/04/28 07:22:45;;;;;;;8.20;3.20;;;;;;;;;;5031581;28;20053;-64
2021/04/28 07:25:30;;;;;;;6.68;3.30;;;;;;;;;;5031659;28;20081;-63
2021/04/28 07:28:16;;;;;;;9.65;3.38;;;;;;;;;;5011870;28;20054;-63
2021/04/28 07:31:01;;;;;;;6.78;3.22;;;;;;;;;;5011473;28;20122;-62
2021/04/28 07:33:46;;;;;;;6.43;3.55;;;;;;;;;;5011647;28;20133;-63
2021/04/28 07:36:32;;;;;;;4.75;3.58;;;;;;;;;;5016162;28;20053;-62
2021/04/28 07:39:17;;;;;;;5.35;3.60;;;;;;;;;;5034985;28;20050;-63
2021/04/28 07:42:02;;;;;;;5.85;3.10;;;;;;;;;;5034817;28;20049;-63
2021/04/28 07:44:48;;;;;;;7.30;3.60;;;;;;;;;;5034798;28;20527;-63
2021/04/28 07:47:33;;;;;;;4.10;3.17;;;;;;;;;;5034688;28;20060;-63
2021/04/28 07:50:18;;;;;;;6.47;3.55;;;;;;;;;;5034633;28;20045;-62
2021/04/28 07:53:04;;;;;;;4.25;3.03;;;;;;;;;;5034825;28;20041;-63
2021/04/28 07:55:49;;;;;;;5.00;3.30;;;;;;;;;;5034586;28;20048;-62
2021/04/28 07:58:35;;;;;;;9.63;3.80;;;;;;;;;;5034637;28;20075;-63
2021/04/28 08:01:21;;;;;;;6.38;3.38;;;;;;;;;;5034198;28;20463;-62
2021/04/28 08:04:06;;;;;;;6.28;3.53;;;;;;;;;;5034498;28;20053;-63
2021/04/28 08:06:52;;;;;;;5.88;3.58;;;;;;;;;;5034537;28;20069;-62
2021/04/28 08:09:37;;;;;;;8.80;3.83;;;;;;;;;;5014379;28;20504;-62
2021/04/28 08:12:23;;;;;;;6.65;3.65;;;;;;;;;;5014586;28;20121;-63
2021/04/28 08:15:08;;;;;;;6.25;3.25;;;;;;;;;;5014697;28;20050;-62
2021/04/28 08:17:53;;;;;;;5.82;3.13;;;;;;;;;;5018724;28;20041;-63
2021/04/28 08:20:39;;;;;;;5.78;3.75;;;;;;;;;;5034020;28;20508;-63
2021/04/28 08:23:29;;;;;;;11.32;4.75;;;;;;;;;;5034418;28;20072;-63
2021/04/28 08:26:15;;;;;;;6.32;3.65;;;;;;;;;;5034274;28;20061;-63
2021/04/28 08:29:00;;;;;;;5.65;3.55;;;;;;;;;;5033980;28;20050;-63
2021/04/28 08:31:46;;;;;;;4.90;3.50;;;;;;;;;;5034095;28;20053;-63
2021/04/28 08:34:31;;;;;;;5.38;3.83;;;;;;;;;;5034073;28;20049;-63
2021/04/28 08:37:16;;;;;;;7.07;3.33;;;;;;;;;;5034018;28;20038;-63
2021/04/28 08:40:02;;;;;;;7.63;3.25;;;;;;;;;;5033549;28;20084;-62
2021/04/28 08:42:47;;;;;;;6.95;2.95;;;;;;;;;;5033861;28;20466;-62
2021/04/28 08:45:33;;;;;;;7.05;4.47;;;;;;;;;;5033769;28;20056;-62
2021/04/28 08:48:18;;;;;;;11.98;4.50;;;;;;;;;;5033556;28;20509;-62
2021/04/28 08:51:03;;;;;;;7.35;4.45;;;;;;;;;;5013838;28;20050;-62
2021/04/28 08:53:50;;;;;;;4.00;3.25;;;;;;;;;;5013698;28;20439;-63
2021/04/28 08:56:35;;;;;;;6.57;4.32;;;;;;;;;;5013789;28;20475;-62
2021/04/28 08:59:21;;;;;;;6.55;4.10;;;;;;;;;;5017384;28;20402;-62
2021/04/28 09:02:13;;;;;;;6.65;4.03;;;;;;;;;;5033455;28;20049;-63
2021/04/28 09:05:07;;;;;;;7.50;4.07;;;;;;;;;;5033309;28;20402;-62
2021/04/28 09:07:53;;;;;;;6.22;4.38;;;;;;;;;;5033529;28;20045;-63
2021/04/28 09:10:39;;;;;;;4.10;3.70;;;;;;;;;;5017921;28;20049;-63
2021/04/28 09:13:24;;;;;;;7.22;4.40;;;;;;;;;;5033435;28;20050;-62
2021/04/28 09:16:16;;;;;;;7.13;4.18;;;;;;;;;;5033142;28;20499;-63
2021/04/28 09:19:01;;;;;;;6.80;3.90;;;;;;;;;;5033270;28;20073;-63
2021/04/28 09:22:06;;;;;;;7.32;4.10;;;;;;;;;;5013279;28;20412;-64
2021/04/28 09:25:10;;;;;;;6.05;3.85;;;;;;;;;;5013202;28;20054;-64
2021/04/28 09:28:29;;;;;;;11.05;4.13;;;;;;;;;;5013143;28;20464;-63
2021/04/28 09:31:17;;;;;;;6.85;4.32;;;;;;;;;;5024604;28;20041;-64
2021/04/28 09:34:02;;;;;;;11.15;3.75;;;;;;;;;;5032776;28;20046;-64
2021/04/28 09:36:47;;;;;;;6.80;3.78;;;;;;;;;;5032849;28;20041;-63
2021/04/28 09:39:33;;;;;;;7.28;3.38;;;;;;;;;;5032606;28;20050;-63
2021/04/28 09:42:22;;;;;;;12.10;3.67;;;;;;;;;;5031453;28;20045;-64
2021/04/28 09:45:07;;;;;;;7.35;4.30;;;;;;;;;;5032645;28;20121;-64
2021/04/28 09:47:53;;;;;;;10.02;4.47;;;;;;;;;;5032673;28;20053;-63
2021/04/28 09:50:38;;;;;;;7.55;3.35;;;;;;;;;;5032156;28;20049;-63
2021/04/28 09:53:27;;;;;;;6.93;4.22;;;;;;;;;;5012579;28;20492;-63
2021/04/28 09:56:18;;;;;;;7.72;3.95;;;;;;;;;;5012778;28;20124;-63
2021/04/28 09:59:03;;;;;;;13.70;4.20;;;;;;;;;;5012554;28;20520;-63
2021/04/28 10:01:48;;;;;;;5.05;3.70;;;;;;;;;;5016764;28;20407;-64
2021/04/28 10:04:34;;;;;;;8.32;4.47;;;;;;;;;;5032134;28;20046;-64
2021/04/28 10:07:23;;;;;;;7.45;4.30;;;;;;;;;;5032179;28;20443;-64
2021/04/28 10:10:09;;;;;;;4.90;4.10;;;;;;;;;;5032067;28;20045;-64
2021/04/28 10:12:54;;;;;;;8.32;4.53;;;;;;;;;;5031715;28;20045;-63
2021/04/28 10:15:39;;;;;;;8.45;4.78;;;;;;;;;;5014508;28;20049;-64
2021/04/28 10:18:24;;;;;;;8.18;4.32;;;;;;;;;;5032075;28;20041;-63
2021/04/28 10:21:09;;;;;;;7.20;4.40;;;;;;;;;;5030749;28;20512;-64
2021/04/28 10:23:55;;;;;;;11.23;5.22;;;;;;;;;;5030650;28;20050;-63
2021/04/28 10:26:41;;;;;;;7.82;4.10;;;;;;;;;;5031624;28;20045;-64
2021/04/28 10:29:26;;;;;;;8.00;4.57;;;;;;;;;;5030673;28;20112;-61
2021/04/28 10:32:15;;;;;;;8.20;4.68;;;;;;;;;;5031743;28;20054;-63
2021/04/28 10:35:06;;;;;;;12.05;4.85;;;;;;;;;;5031739;28;20049;-63
2021/04/28 10:37:51;;;;;;;5.97;4.13;;;;;;;;;;5031712;28;20042;-64
2021/04/28 10:40:37;;;;;;;6.50;4.82;;;;;;;;;;5031428;28;20046;-63
2021/04/28 10:43:22;;;;;;;6.20;5.32;;;;;;;;;;5031750;28;20582;-64
2021/04/28 10:46:20;;;;;;;9.27;4.97;;;;;;;;;;5031730;28;20041;-64
2021/04/28 10:49:17;;;;;;;9.93;5.28;;;;;;;;;;5031319;28;20058;-63
2021/04/28 10:52:03;;;;;;;7.97;5.18;;;;;;;;;;5031643;28;20550;-63
2021/04/28 10:54:48;;;;;;;8.02;4.95;;;;;;;;;;5031329;28;20053;-64
2021/04/28 10:57:37;;;;;;;8.75;5.10;;;;;;;;;;5031824;28;20054;-64
2021/04/28 11:00:22;;;;;;;6.18;5.03;;;;;;;;;;5031373;28;20053;-64
2021/04/28 11:03:26;;;;;;;6.50;4.80;;;;;;;;;;5031526;28;20495;-65
2021/04/28 11:06:28;;;;;;;12.02;6.05;;;;;;;;;;5011902;28;20049;-64
2021/04/28 11:09:14;;;;;;;10.85;5.35;;;;;;;;;;5011795;28;20046;-64
2021/04/28 11:11:59;;;;;;;7.40;5.30;;;;;;;;;;5012268;28;20504;-64
2021/04/28 11:14:47;;;;;;;6.82;5.72;;;;;;;;;;5024854;28;20138;-64
2021/04/28 11:17:32;;;;;;;9.15;5.80;;;;;;;;;;5020158;28;20077;-63
2021/04/28 11:20:20;;;;;;;8.63;6.05;;;;;;;;;;5035097;28;20041;-64
2021/04/28 11:23:24;;;;;;;8.20;4.72;;;;;;;;;;5035084;28;20432;-63
2021/04/28 11:26:25;;;;;;;7.82;5.30;;;;;;;;;;5035056;28;20049;-63
2021/04/28 11:29:10;;;;;;;8.00;5.72;;;;;;;;;;5034595;28;20037;-63
2021/04/28 11:31:57;;;;;;;7.65;5.78;;;;;;;;;;5032480;28;20113;-63
2021/04/28 11:34:42;;;;;;;8.20;5.53;;;;;;;;;;5034797;28;20045;-63
2021/04/28 11:37:27;;;;;;;8.75;5.72;;;;;;;;;;5034936;28;20041;-63
2021/04/28 11:40:12;;;;;;;9.52;6.32;;;;;;;;;;5034752;28;20042;-63
2021/04/28 11:42:59;;;;;;;9.75;5.80;;;;;;;;;;5035064;28;20073;-63
2021/04/28 11:45:45;;;;;;;7.07;6.10;;;;;;;;;;5034842;28;20041;-63
2021/04/28 11:48:31;;;;;;;9.50;6.20;;;;;;;;;;5034767;28;20046;-63
2021/04/28 11:51:17;;;;;;;9.05;6.03;;;;;;;;;;5034301;28;20061;-63
2021/04/28 11:54:02;;;;;;;7.40;5.88;;;;;;;;;;5034418;28;20092;-63
2021/04/28 11:56:48;;;;;;;13.13;7.53;;;;;;;;;;5034509;28;20041;-63
2021/04/28 11:59:38;;;;;;;6.90;5.65;;;;;;;;;;5033258;28;20073;-63
2021/04/28 12:02:25;;;;;;;7.38;6.40;;;;;;;;;;5034626;28;20124;-63
2021/04/28 12:05:11;;;;;;;9.68;6.10;;;;;;;;;;5033272;28;20507;-63
2021/04/28 12:07:56;;;;;;;10.18;6.32;;;;;;;;;;5014550;28;20054;-63
2021/04/28 12:10:42;;;;;;;10.85;6.82;;;;;;;;;;5014295;28;20042;-63
2021/04/28 12:13:27;;;;;;;10.13;6.40;;;;;;;;;;5014456;28;20049;-63
2021/04/28 12:16:12;;;;;;;7.93;6.53;;;;;;;;;;5016687;28;20440;-63
2021/04/28 12:19:13;;;;;;;8.02;6.10;;;;;;;;;;5034073;28;20487;-63
2021/04/28 12:22:03;;;;;;;11.70;5.63;;;;;;;;;;5034133;28;20068;-63
2021/04/28 12:24:49;;;;;;;10.07;5.78;;;;;;;;;;5032955;28;20579;-63
2021/04/28 12:27:35;;;;;;;12.30;6.63;;;;;;;;;;5033778;28;20585;-63
2021/04/28 12:30:22;;;;;;;19.10;7.80;;;;;;;;;;5033786;28;20041;-63
2021/04/28 12:33:07;;;;;;;11.60;6.90;;;;;;;;;;5033707;28;20045;-63
2021/04/28 12:35:53;;;;;;;10.65;6.80;;;;;;;;;;5033971;28;20046;-63
2021/04/28 12:38:41;;;;;;;7.90;6.10;;;;;;;;;;5033714;28;20099;-63
2021/04/28 12:41:26;;;;;;;8.85;5.57;;;;;;;;;;5033405;28;20523;-63
2021/04/28 12:44:11;;;;;;;10.13;6.38;;;;;;;;;;5032790;28;20053;-63
2021/04/28 12:46:56;;;;;;;7.40;6.63;;;;;;;;;;5032429;28;20042;-63
2021/04/28 12:49:42;;;;;;;8.82;6.47;;;;;;;;;;5033342;28;20061;-64
2021/04/28 12:52:31;;;;;;;9.48;6.93;;;;;;;;;;5033224;28;20041;-63
2021/04/28 12:55:23;;;;;;;11.98;7.05;;;;;;;;;;5085205;22;20068;-63
2021/04/28 12:58:11;;;;;;;9.68;7.00;;;;;;;;;;5072993;28;20040;-62
2021/04/28 13:00:57;;;;;;;7.75;6.95;;;;;;;;;;5073107;28;20128;-63
2021/04/28 13:03:42;;;;;;;10.63;6.82;;;;;;;;;;5073032;28;20048;-63
2021/04/28 13:06:28;;;;;;;8.95;6.53;;;;;;;;;;5073100;28;20048;-63
2021/04/28 13:09:16;;;;;;;7.10;6.43;;;;;;;;;;5057843;28;20052;-63
2021/04/28 13:12:02;;;;;;;8.20;6.50;;;;;;;;;;5072992;28;20132;-63
2021/04/28 13:14:50;;;;;;;10.55;7.53;;;;;;;;;;5072670;28;20052;-63
2021/04/28 13:18:02;;;;;;;11.38;6.20;;;;;;;;;;5072949;28;20049;-63
2021/04/28 13:20:47;;;;;;;10.32;7.05;;;;;;;;;;5052750;28;20127;-63
2021/04/28 13:23:32;;;;;;;16.75;8.25;;;;;;;;;;5052741;28;20498;-62
2021/04/28 13:26:19;;;;;;;11.88;7.15;;;;;;;;;;5052849;28;20510;-63
2021/04/28 13:29:04;;;;;;;16.63;8.00;;;;;;;;;;5064281;28;20559;-62
2021/04/28 13:31:50;;;;;;;28.30;8.40;;;;;;;;;;5072544;28;20415;-62
2021/04/28 13:34:40;;;;;;;13.77;7.57;;;;;;;;;;5062215;28;20044;-62
2021/04/28 13:37:25;;;;;;;12.95;7.80;;;;;;;;;;5056014;28;20107;-62
2021/04/28 13:40:13;;;;;;;8.77;7.13;;;;;;;;;;5061014;28;20414;-62
2021/04/28 13:42:59;;;;;;;11.38;8.40;;;;;;;;;;5068783;28;20045;-63
2021/04/28 13:45:44;;;;;;;10.50;7.32;;;;;;;;;;5058089;28;20048;-62
2021/04/28 13:48:30;;;;;;;8.38;6.88;;;;;;;;;;5071836;28;20135;-62
2021/04/28 13:51:15;;;;;;;8.73;7.50;;;;;;;;;;5067843;28;20056;-63
2021/04/28 13:54:00;;;;;;;10.45;7.85;;;;;;;;;;5060862;28;20645;-63
2021/04/28 13:56:46;;;;;;;9.15;8.18;;;;;;;;;;5071654;28;20483;-63
2021/04/28 13:59:32;;;;;;;9.02;7.70;;;;;;;;;;5071588;28;20044;-63
2021/04/28 14:02:17;;;;;;;8.30;7.18;;;;;;;;;;5060785;28;20041;-63
2021/04/28 14:05:02;;;;;;;10.38;7.55;;;;;;;;;;5052876;28;20049;-63
2021/04/28 14:07:48;;;;;;;10.27;7.38;;;;;;;;;;5064598;28;20049;-63
2021/04/28 14:10:34;;;;;;;12.07;7.85;;;;;;;;;;5049331;28;20040;-63
2021/04/28 14:13:19;;;;;;;9.45;7.50;;;;;;;;;;5068177;28;20044;-62
2021/04/28 14:16:04;;;;;;;9.40;7.88;;;;;;;;;;5061296;28;20072;-63
2021/04/28 14:18:49;;;;;;;12.95;8.57;;;;;;;;;;5056041;28;20506;-63
2021/04/28 14:21:34;;;;;;;9.48;8.23;;;;;;;;;;5063337;28;20052;-63
2021/04/28 14:24:20;;;;;;;8.05;7.10;;;;;;;;;;5063477;28;20529;-63
2021/04/28 14:27:05;;;;;;;10.73;6.78;;;;;;;;;;5055033;28;20044;-63
2021/04/28 14:29:50;;;;;;;21.45;9.45;;;;;;;;;;5063729;28;20093;-63
2021/04/28 14:32:36;;;;;;;11.80;8.00;;;;;;;;;;5071549;28;20471;-63
2021/04/28 14:35:21;;;;;;;9.98;8.70;;;;;;;;;;5068165;28;20049;-62
2021/04/28 14:38:07;;;;;;;9.23;8.23;;;;;;;;;;5061242;28;20433;-63
2021/04/28 14:40:52;;;;;;;10.82;7.97;;;;;;;;;;5061119;28;20040;-63
2021/04/28 14:43:38;;;;;;;11.10;8.20;;;;;;;;;;5057623;28;20044;-62
2021/04/28 14:46:24;;;;;;;10.45;7.65;;;;;;;;;;5058617;28;20083;-63
2021/04/28 14:49:09;;;;;;;11.98;8.18;;;;;;;;;;5072051;28;20497;-62
2021/04/28 14:51:54;;;;;;;9.45;7.47;;;;;;;;;;5058958;28;20483;-62
2021/04/28 14:54:41;;;;;;;8.15;7.35;;;;;;;;;;5055382;28;20438;-62
2021/04/28 14:57:28;;;;;;;11.35;7.43;;;;;;;;;;5059983;28;20105;-63
2021/04/28 15:00:14;;;;;;;9.45;8.48;;;;;;;;;;5074893;28;20486;-62
2021/04/28 15:03:00;;;;;;;9.48;7.63;;;;;;;;;;5058742;28;20494;-63
2021/04/28 15:05:45;;;;;;;11.13;7.72;;;;;;;;;;5068293;28;20041;-62
2021/04/28 15:08:31;;;;;;;9.15;7.93;;;;;;;;;;5068428;28;20040;-63
2021/04/28 15:11:16;;;;;;;9.75;7.28;;;;;;;;;;5061587;28;20037;-62
2021/04/28 15:14:02;;;;;;;8.75;7.15;;;;;;;;;;5064350;28;20453;-63
2021/04/28 15:16:47;;;;;;;9.50;7.03;;;;;;;;;;5059369;28;20041;-62
2021/04/28 15:19:33;;;;;;;9.05;7.22;;;;;;;;;;5059971;28;20040;-62
2021/04/28 15:22:19;;;;;;;9.75;8.27;;;;;;;;;;5063139;28;20041;-63
2021/04/28 15:25:05;;;;;;;10.02;7.70;;;;;;;;;;5071344;28;20049;-62
2021/04/28 15:27:50;;;;;;;14.57;7.85;;;;;;;;;;5062414;28;20106;-63
2021/04/28 15:30:39;;;;;;;9.73;7.57;;;;;;;;;;5060840;28;20052;-62
2021/04/28 15:33:24;;;;;;;11.25;7.00;;;;;;;;;;5058879;28;20120;-63
2021/04/28 15:36:09;;;;;;;8.65;6.75;;;;;;;;;;5064387;28;20419;-63
2021/04/28 15:38:55;;;;;;;10.25;7.15;;;;;;;;;;5071452;28;20048;-62
2021/04/28 15:41:40;;;;;;;10.80;7.35;;;;;;;;;;5074309;28;20037;-63
2021/04/28 15:44:27;;;;;;;9.63;7.88;;;;;;;;;;5061980;28;20053;-63
2021/04/28 15:47:12;;;;;;;9.73;7.57;;;;;;;;;;5071351;28;20055;-63
2021/04/28 15:49:57;;;;;;;8.52;7.53;;;;;;;;;;5062915;28;20040;-62
2021/04/28 15:52:43;;;;;;;7.22;6.45;;;;;;;;;;5069526;28;20127;-63
2021/04/28 15:55:28;;;;;;;9.32;6.30;;;;;;;;;;5058572;28;20037;-63
2021/04/28 15:58:13;;;;;;;9.95;6.13;;;;;;;;;;5073624;28;20103;-62
2021/04/28 16:00:59;;;;;;;6.97;5.45;;;;;;;;;;5057545;28;20582;-63
2021/04/28 16:03:45;;;;;;;8.63;6.15;;;;;;;;;;5067463;28;20048;-63
2021/04/28 16:06:31;;;;;;;10.23;6.53;;;;;;;;;;5054525;28;20049;-62
2021/04/28 16:09:16;;;;;;;9.25;6.72;;;;;;;;;;5070701;28;20037;-62
2021/04/28 16:12:02;;;;;;;11.18;6.25;;;;;;;;;;5062674;28;20475;-63
2021/04/28 16:14:48;;;;;;;8.48;6.05;;;;;;;;;;5073964;28;20044;-62
2021/04/28 16:17:33;;;;;;;10.55;5.97;;;;;;;;;;5058934;28;20045;-63
2021/04/28 16:20:18;;;;;;;7.85;6.15;;;;;;;;;;5072692;28;20044;-62
2021/04/28 16:23:04;;;;;;;7.68;5.85;;;;;;;;;;5072343;28;20055;-62
2021/04/28 16:25:52;;;;;;;13.55;6.80;;;;;;;;;;5072901;28;20445;-62
2021/04/28 16:28:37;;;;;;;7.90;5.72;;;;;;;;;;5059795;28;20049;-62
2021/04/28 16:31:23;;;;;;;7.15;5.65;;;;;;;;;;5063273;28;20056;-62
2021/04/28 16:34:08;;;;;;;8.07;6.70;;;;;;;;;;5073760;28;20127;-62
2021/04/28 16:36:53;;;;;;;9.50;5.43;;;;;;;;;;5057070;28;20045;-62
2021/04/28 16:39:39;;;;;;;14.77;7.18;;;;;;;;;;5039655;28;20045;-62
2021/04/28 16:42:24;;;;;;;9.35;6.13;;;;;;;;;;5052603;28;20414;-62